createdAt,value
2018-12-01T00:04:38.513Z,95912.9
2018-12-01T00:09:35.035Z,95907.8
2018-12-01T00:14:32.275Z,95909.1
2018-12-01T00:19:29.037Z,95913.7
2018-12-01T00:24:25.562Z,95913.3
2018-12-01T00:29:21.895Z,95914.7
2018-12-01T00:34:18.151Z,95911
2018-12-01T00:39:14.716Z,95902
2018-12-01T00:44:11.672Z,95900.5
2018-12-01T00:49:08.954Z,95901.7
2018-12-01T00:54:05.856Z,95897.8
2018-12-01T00:59:02.884Z,95902.5
2018-12-01T01:03:59.507Z,95896.9
2018-12-01T01:08:56.501Z,95902.8
2018-12-01T01:13:53.287Z,95859.5
2018-12-01T01:18:50.255Z,95883.5
2018-12-01T01:23:47.153Z,95875.6
2018-12-01T01:28:43.946Z,95860.5
2018-12-01T01:33:40.754Z,95854.6
2018-12-01T01:38:37.593Z,95846.1
2018-12-01T01:43:34.171Z,95862.6
2018-12-01T01:48:31.106Z,95837.1
2018-12-01T01:53:27.934Z,95805
2018-12-01T01:58:24.764Z,95823.8
2018-12-01T02:03:21.942Z,95822
2018-12-01T02:08:18.784Z,95823
2018-12-01T02:13:15.235Z,95825.2
2018-12-01T02:18:12.004Z,95831
2018-12-01T02:23:08.899Z,95826.8
2018-12-01T02:28:05.699Z,95825.2
2018-12-01T02:33:02.447Z,95820.9
2018-12-01T02:37:59.353Z,95824.2
2018-12-01T02:42:56.309Z,95826.5
2018-12-01T02:47:53.295Z,95836.5
2018-12-01T02:52:49.999Z,95841.1
2018-12-01T02:57:47.401Z,95848.5
2018-12-01T03:02:44.420Z,95853.6
2018-12-01T03:07:41.147Z,95852.8
2018-12-01T03:12:37.950Z,95855.8
2018-12-01T03:17:34.929Z,95851.1
2018-12-01T03:22:31.285Z,95843.2
2018-12-01T03:27:28.031Z,95838.4
2018-12-01T03:32:24.823Z,95837.9
2018-12-01T03:37:21.600Z,95844.2
2018-12-01T03:42:18.364Z,95839.6
2018-12-01T03:47:15.217Z,95841.9
2018-12-01T03:52:11.456Z,95833.6
2018-12-01T03:57:08.688Z,95846.7
2018-12-01T04:02:05.535Z,95846.3
2018-12-01T04:07:02.296Z,95858
2018-12-01T04:11:59.135Z,95827.3
2018-12-01T04:16:55.893Z,95852.2
2018-12-01T04:21:52.861Z,95857.2
2018-12-01T04:26:49.768Z,95861
2018-12-01T04:31:46.353Z,95856.2
2018-12-01T04:36:43.095Z,95854.2
2018-12-01T04:41:39.941Z,95869.2
2018-12-01T04:46:36.852Z,95869.5
2018-12-01T04:51:33.402Z,95869.4
2018-12-01T04:56:29.718Z,95875.9
2018-12-01T05:01:26.682Z,95881.1
2018-12-01T05:06:24.192Z,95890.1
2018-12-01T05:11:20.797Z,95911.1
2018-12-01T05:16:17.091Z,95914
2018-12-01T05:21:14.049Z,95917
2018-12-01T05:26:09.975Z,95919.1
2018-12-01T05:31:06.892Z,95923.7
2018-12-01T05:36:03.719Z,95932.5
2018-12-01T05:41:00.176Z,95936
2018-12-01T05:45:56.831Z,95945.5
2018-12-01T05:50:53.102Z,95948.3
2018-12-01T05:55:49.563Z,95944.6
2018-12-01T06:00:47.105Z,95952.8
2018-12-01T06:05:44.279Z,95951
2018-12-01T06:10:40.993Z,95954.7
2018-12-01T06:15:37.809Z,95958.2
2018-12-01T06:20:34.983Z,95961.2
2018-12-01T06:25:31.914Z,95959.8
2018-12-01T06:30:28.720Z,95956.7
2018-12-01T06:35:25.161Z,95957.5
2018-12-01T06:40:22.365Z,95955.4
2018-12-01T06:45:19.142Z,95955.3
2018-12-01T06:50:15.660Z,95964
2018-12-01T06:55:12.705Z,95957.5
2018-12-01T07:00:09.761Z,95952.8
2018-12-01T07:05:06.685Z,95960.2
2018-12-01T07:10:00.185Z,95961.5
2018-12-01T07:14:57.245Z,95973.6
2018-12-01T07:19:53.951Z,95942
2018-12-01T07:24:51.338Z,95979.1
2018-12-01T07:29:48.243Z,95940.9
2018-12-01T07:34:45.159Z,95992.3
2018-12-01T07:39:42.110Z,95996.8
2018-12-01T07:44:39.008Z,95993
2018-12-01T07:49:35.984Z,95997.9
2018-12-01T07:54:33.075Z,95992.5
2018-12-01T07:59:30.082Z,95996.2
2018-12-01T08:04:26.996Z,96003
2018-12-01T08:09:23.966Z,96004.8
2018-12-01T08:14:20.883Z,96008
2018-12-01T08:19:17.896Z,95998
2018-12-01T08:24:14.778Z,96002.1
2018-12-01T08:29:11.554Z,96005.9
2018-12-01T08:34:08.488Z,95999.3
2018-12-01T08:39:05.457Z,95996.8
2018-12-01T08:44:02.420Z,95995.2
2018-12-01T08:48:59.151Z,95995.2
2018-12-01T08:53:55.923Z,95990.1
2018-12-01T08:58:52.945Z,95992.5
2018-12-01T09:03:49.477Z,95994.8
2018-12-01T09:08:46.215Z,95988
2018-12-01T09:13:42.998Z,95989.9
2018-12-01T09:18:40.085Z,95979
2018-12-01T09:23:37.037Z,95973
2018-12-01T09:28:34.100Z,95983.6
2018-12-01T09:33:30.893Z,95975
2018-12-01T09:38:27.752Z,95973.1
2018-12-01T09:43:24.839Z,95971.3
2018-12-01T09:48:21.821Z,95961.8
2018-12-01T09:53:18.838Z,95961.3
2018-12-01T09:58:16.129Z,95951.5
2018-12-01T10:03:14.451Z,95950.9
2018-12-01T10:08:12.219Z,95940.8
2018-12-01T10:13:10.215Z,95943.9
2018-12-01T10:18:08.201Z,95940
2018-12-01T10:23:05.201Z,95938.3
2018-12-01T10:28:02.251Z,95936.1
2018-12-01T10:32:59.387Z,95925.9
2018-12-01T10:37:56.360Z,95927.7
2018-12-01T10:42:53.436Z,95922.8
2018-12-01T10:47:50.546Z,95921
2018-12-01T10:52:47.921Z,95921.6
2018-12-01T10:57:44.622Z,95926.3
2018-12-01T11:02:41.664Z,95933.4
2018-12-01T11:07:38.399Z,95922.5
2018-12-01T11:12:35.236Z,95919.3
2018-12-01T11:17:32.304Z,95912.3
2018-12-01T11:22:29.370Z,95906.4
2018-12-01T11:27:26.384Z,95902.4
2018-12-01T11:32:23.348Z,95896.3
2018-12-01T11:37:19.959Z,95894.3
2018-12-01T11:42:17.085Z,95892.9
2018-12-01T11:47:14.146Z,95899.4
2018-12-01T11:52:12.306Z,95895.4
2018-12-01T11:57:10.068Z,95891.1
2018-12-01T12:02:06.718Z,95948.5
2018-12-01T12:07:03.867Z,95894.7
2018-12-01T12:12:01.092Z,95889.4
2018-12-01T12:16:57.808Z,95892.1
2018-12-01T12:21:55.277Z,95897.6
2018-12-01T12:26:52.070Z,95890.3
2018-12-01T12:31:48.367Z,95890.9
2018-12-01T12:36:45.411Z,95898.9
2018-12-01T12:41:42.454Z,95898.5
2018-12-01T12:46:38.667Z,95890.8
2018-12-01T12:51:35.925Z,95883.8
2018-12-01T12:56:32.722Z,95877.7
2018-12-01T13:01:29.807Z,95882.9
2018-12-01T13:06:25.240Z,95860.9
2018-12-01T13:11:22.190Z,95897.7
2018-12-01T13:16:19.230Z,95899.7
2018-12-01T13:21:16.016Z,95896.2
2018-12-01T13:26:13.147Z,95899.1
2018-12-01T13:31:10.056Z,95902.4
2018-12-01T13:36:06.849Z,95896.5
2018-12-01T13:41:03.730Z,95908.2
2018-12-01T13:46:00.492Z,95902.6
2018-12-01T13:50:57.266Z,95915.3
2018-12-01T13:55:53.816Z,95912.9
2018-12-01T14:00:50.486Z,95915.2
2018-12-01T14:05:47.221Z,95887.5
2018-12-01T14:10:44.340Z,95926.7
2018-12-01T14:15:41.890Z,95927.1
2018-12-01T14:20:38.655Z,95926.7
2018-12-01T14:25:35.336Z,95929.7
2018-12-01T14:30:32.286Z,95924.6
2018-12-01T14:35:29.206Z,95885.2
2018-12-01T14:40:26.238Z,95919.7
2018-12-01T14:45:22.927Z,95932.6
2018-12-01T14:50:19.087Z,95929.1
2018-12-01T14:55:16.328Z,95942.1
2018-12-01T15:00:13.311Z,95927.2
2018-12-01T15:05:12.945Z,95939.8
2018-12-01T15:10:08.857Z,95943.4
2018-12-01T15:15:05.419Z,95939.5
2018-12-01T15:20:02.448Z,95940.9
2018-12-01T15:24:59.234Z,95940.7
2018-12-01T15:29:56.026Z,95950.2
2018-12-01T15:34:53.023Z,95956.6
2018-12-01T15:39:49.971Z,95964.1
2018-12-01T15:44:46.764Z,95965.3
2018-12-01T15:49:43.910Z,95960.9
2018-12-01T15:54:40.857Z,95973.7
2018-12-01T15:59:37.708Z,95976.3
2018-12-01T16:04:34.188Z,95970.4
2018-12-01T16:09:30.951Z,95818.7
2018-12-01T16:14:27.881Z,95979.9
2018-12-01T16:19:25.410Z,95982
2018-12-01T16:24:22.185Z,95983.9
2018-12-01T16:29:19.362Z,95982.5
2018-12-01T16:34:15.453Z,95985.4
2018-12-01T16:39:12.535Z,95989
2018-12-01T16:44:09.162Z,96188.4
2018-12-01T16:49:05.741Z,95996.6
2018-12-01T16:54:02.806Z,95988.2
2018-12-01T16:58:59.680Z,96000.4
2018-12-01T17:03:56.569Z,95999.7
2018-12-01T17:08:53.469Z,96002.1
2018-12-01T17:13:50.790Z,96014.4
2018-12-01T17:18:47.504Z,96013.3
2018-12-01T17:23:44.663Z,96015.6
2018-12-01T17:28:41.990Z,96018.4
2018-12-01T17:33:39.319Z,96026.1
2018-12-01T17:38:36.289Z,96026
2018-12-01T17:43:33.369Z,96026.3
2018-12-01T17:48:30.201Z,95997.6
2018-12-01T17:53:27.194Z,96014.4
2018-12-01T17:58:24.153Z,96017.9
2018-12-01T18:03:21.396Z,96012
2018-12-01T18:08:18.249Z,96007.3
2018-12-01T18:13:14.990Z,95991.9
2018-12-01T18:18:11.941Z,96007.5
2018-12-01T18:23:09.160Z,96000.2
2018-12-01T18:28:06.154Z,96005.8
2018-12-01T18:33:03.189Z,96004.6
2018-12-01T18:37:59.796Z,96000.1
2018-12-01T18:42:56.496Z,96004.8
2018-12-01T18:47:53.433Z,96001.6
2018-12-01T18:52:50.224Z,95998.3
2018-12-01T18:57:47.485Z,96003.2
2018-12-01T19:02:44.137Z,96007.5
2018-12-01T19:07:41.661Z,96016
2018-12-01T19:12:38.321Z,96014.1
2018-12-01T19:17:35.242Z,96029.3
2018-12-01T19:22:32.131Z,96032.4
2018-12-01T19:27:29.018Z,96028.2
2018-12-01T19:32:25.241Z,96039.4
2018-12-01T19:37:22.336Z,96042.4
2018-12-01T19:42:18.783Z,96038.2
2018-12-01T19:47:15.718Z,96033.6
2018-12-01T19:52:12.445Z,96013.4
2018-12-01T19:57:09.208Z,96030
2018-12-01T20:02:06.284Z,96032.1
2018-12-01T20:07:03.431Z,96035.4
2018-12-01T20:11:59.979Z,96037.9
2018-12-01T20:16:56.898Z,96031.9
2018-12-01T20:21:53.840Z,96028.5
2018-12-01T20:26:50.939Z,96023.9
2018-12-01T20:31:47.724Z,96019.3
2018-12-01T20:36:44.393Z,96027
2018-12-01T20:41:41.065Z,96032.4
2018-12-01T20:46:37.973Z,96036.5
2018-12-01T20:51:34.728Z,96036.7
2018-12-01T20:56:32.862Z,96041.4
2018-12-01T21:01:29.326Z,96065.4
2018-12-01T21:06:26.128Z,96040.9
2018-12-01T21:11:22.746Z,96033.4
2018-12-01T21:16:19.734Z,96034.1
2018-12-01T21:21:16.594Z,96035.3
2018-12-01T21:26:13.758Z,96043.4
2018-12-01T21:31:10.331Z,96040.3
2018-12-01T21:36:07.897Z,96043.4
2018-12-01T21:41:04.527Z,96046.6
2018-12-01T21:46:01.291Z,96052.4
2018-12-01T21:50:57.887Z,96055.4
2018-12-01T21:55:54.958Z,96059.3
2018-12-01T22:00:52.301Z,96062.2
2018-12-01T22:05:49.238Z,96067.7
2018-12-01T22:10:45.958Z,96065.5
2018-12-01T22:15:42.784Z,96070
2018-12-01T22:20:39.971Z,96061.3
2018-12-01T22:25:36.795Z,96064.1
2018-12-01T22:30:33.560Z,96061
2018-12-01T22:35:31.052Z,96054.1
2018-12-01T22:40:27.638Z,96062.1
2018-12-01T22:45:23.990Z,96057.8
2018-12-01T22:50:19.728Z,96053.2
2018-12-01T22:55:16.767Z,96023.3
2018-12-01T23:00:13.926Z,96060.8
2018-12-01T23:05:11.181Z,96051.1
2018-12-01T23:10:08.116Z,96044.3
2018-12-01T23:20:01.721Z,96041.2
2018-12-01T23:24:58.487Z,95992.7
2018-12-01T23:29:55.276Z,96055.6
2018-12-01T23:34:53.273Z,96059.9
2018-12-01T23:39:49.094Z,96057
2018-12-01T23:44:45.974Z,96053.5
2018-12-01T23:49:42.876Z,96051.7
2018-12-01T23:54:40.082Z,96048.9
2018-12-01T23:59:37.232Z,96043.1
